sensor_id;sensor_type;location;lat;lon;timestamp;P1;durP1;ratioP1;P2;durP2;ratioP2
24407;SDS011;12542;50.924;4.516;2023-08-08T00:01:07;5.72;;;1.63;;
24407;SDS011;12542;50.924;4.516;2023-08-08T00:03:33;7.35;;;1.70;;
24407;SDS011;12542;50.924;4.516;2023-08-08T00:05:59;6.60;;;1.80;;
24407;SDS011;12542;50.924;4.516;2023-08-08T00:08:27;7.88;;;1.95;;
24407;SDS011;12542;50.924;4.516;2023-08-08T00:10:53;5.55;;;1.70;;
24407;SDS011;12542;50.924;4.516;2023-08-08T00:13:18;5.63;;;1.33;;
24407;SDS011;12542;50.924;4.516;2023-08-08T00:15:44;4.43;;;1.60;;
24407;SDS011;12542;50.924;4.516;2023-08-08T00:18:10;7.03;;;1.73;;
24407;SDS011;12542;50.924;4.516;2023-08-08T00:20:36;5.95;;;1.55;;
24407;SDS011;12542;50.924;4.516;2023-08-08T00:23:01;7.78;;;1.65;;
24407;SDS011;12542;50.924;4.516;2023-08-08T00:25:27;6.15;;;1.63;;
24407;SDS011;12542;50.924;4.516;2023-08-08T00:27:53;5.63;;;2.00;;
24407;SDS011;12542;50.924;4.516;2023-08-08T00:30:18;8.57;;;2.10;;
24407;SDS011;12542;50.924;4.516;2023-08-08T00:32:44;5.53;;;1.95;;
24407;SDS011;12542;50.924;4.516;2023-08-08T00:35:10;7.43;;;1.77;;
24407;SDS011;12542;50.924;4.516;2023-08-08T00:37:35;4.72;;;1.67;;
24407;SDS011;12542;50.924;4.516;2023-08-08T00:40:03;8.52;;;1.70;;
24407;SDS011;12542;50.924;4.516;2023-08-08T00:42:29;6.85;;;2.13;;
24407;SDS011;12542;50.924;4.516;2023-08-08T00:45:08;7.35;;;2.10;;
24407;SDS011;12542;50.924;4.516;2023-08-08T00:47:33;8.32;;;2.20;;
24407;SDS011;12542;50.924;4.516;2023-08-08T00:50:00;7.03;;;1.90;;
24407;SDS011;12542;50.924;4.516;2023-08-08T00:52:26;11.10;;;2.35;;
24407;SDS011;12542;50.924;4.516;2023-08-08T00:54:52;8.30;;;2.10;;
24407;SDS011;12542;50.924;4.516;2023-08-08T00:57:18;11.20;;;2.13;;
24407;SDS011;12542;50.924;4.516;2023-08-08T00:59:45;5.57;;;2.50;;
24407;SDS011;12542;50.924;4.516;2023-08-08T01:02:11;6.38;;;2.17;;
24407;SDS011;12542;50.924;4.516;2023-08-08T01:04:36;9.10;;;1.98;;
24407;SDS011;12542;50.924;4.516;2023-08-08T01:07:06;7.72;;;2.20;;
24407;SDS011;12542;50.924;4.516;2023-08-08T01:09:59;8.67;;;2.20;;
24407;SDS011;12542;50.924;4.516;2023-08-08T01:12:51;9.93;;;2.33;;
24407;SDS011;12542;50.924;4.516;2023-08-08T01:15:20;9.05;;;2.30;;
24407;SDS011;12542;50.924;4.516;2023-08-08T01:17:47;7.35;;;2.60;;
24407;SDS011;12542;50.924;4.516;2023-08-08T01:20:14;12.07;;;2.50;;
24407;SDS011;12542;50.924;4.516;2023-08-08T01:22:50;10.02;;;2.60;;
24407;SDS011;12542;50.924;4.516;2023-08-08T01:25:29;3.90;;;1.70;;
24407;SDS011;12542;50.924;4.516;2023-08-08T01:27:56;6.72;;;2.67;;
24407;SDS011;12542;50.924;4.516;2023-08-08T01:30:21;6.43;;;2.55;;
24407;SDS011;12542;50.924;4.516;2023-08-08T01:32:47;8.32;;;2.03;;
24407;SDS011;12542;50.924;4.516;2023-08-08T01:35:15;10.30;;;2.65;;
24407;SDS011;12542;50.924;4.516;2023-08-08T01:37:45;9.07;;;2.55;;
24407;SDS011;12542;50.924;4.516;2023-08-08T01:40:17;9.10;;;2.77;;
24407;SDS011;12542;50.924;4.516;2023-08-08T01:42:47;11.13;;;2.60;;
24407;SDS011;12542;50.924;4.516;2023-08-08T01:45:15;9.15;;;3.00;;
24407;SDS011;12542;50.924;4.516;2023-08-08T01:47:41;10.32;;;2.22;;
24407;SDS011;12542;50.924;4.516;2023-08-08T01:50:07;8.65;;;2.67;;
24407;SDS011;12542;50.924;4.516;2023-08-08T01:52:34;9.60;;;2.70;;
24407;SDS011;12542;50.924;4.516;2023-08-08T01:55:00;8.50;;;3.03;;
24407;SDS011;12542;50.924;4.516;2023-08-08T01:57:26;7.63;;;2.42;;
24407;SDS011;12542;50.924;4.516;2023-08-08T01:59:53;7.20;;;2.63;;
24407;SDS011;12542;50.924;4.516;2023-08-08T02:02:21;9.98;;;2.53;;
24407;SDS011;12542;50.924;4.516;2023-08-08T02:04:49;8.82;;;2.60;;
24407;SDS011;12542;50.924;4.516;2023-08-08T02:07:15;6.90;;;2.78;;
24407;SDS011;12542;50.924;4.516;2023-08-08T02:09:41;12.60;;;3.28;;
24407;SDS011;12542;50.924;4.516;2023-08-08T02:12:11;11.65;;;3.22;;
24407;SDS011;12542;50.924;4.516;2023-08-08T02:14:36;12.77;;;3.10;;
24407;SDS011;12542;50.924;4.516;2023-08-08T02:17:02;15.52;;;3.00;;
24407;SDS011;12542;50.924;4.516;2023-08-08T02:19:28;9.15;;;2.92;;
24407;SDS011;12542;50.924;4.516;2023-08-08T02:21:55;10.75;;;2.88;;
24407;SDS011;12542;50.924;4.516;2023-08-08T02:24:20;11.68;;;2.63;;
24407;SDS011;12542;50.924;4.516;2023-08-08T02:26:46;11.45;;;2.65;;
24407;SDS011;12542;50.924;4.516;2023-08-08T02:29:12;13.73;;;2.78;;
24407;SDS011;12542;50.924;4.516;2023-08-08T02:31:37;8.30;;;3.45;;
24407;SDS011;12542;50.924;4.516;2023-08-08T02:34:03;12.95;;;3.17;;
24407;SDS011;12542;50.924;4.516;2023-08-08T02:36:29;13.02;;;3.03;;
24407;SDS011;12542;50.924;4.516;2023-08-08T02:38:54;12.60;;;3.63;;
24407;SDS011;12542;50.924;4.516;2023-08-08T02:41:20;11.68;;;2.90;;
24407;SDS011;12542;50.924;4.516;2023-08-08T02:43:46;9.05;;;2.38;;
24407;SDS011;12542;50.924;4.516;2023-08-08T02:46:12;10.23;;;3.35;;
24407;SDS011;12542;50.924;4.516;2023-08-08T02:48:37;8.43;;;2.60;;
24407;SDS011;12542;50.924;4.516;2023-08-08T02:51:03;11.10;;;3.38;;
24407;SDS011;12542;50.924;4.516;2023-08-08T02:53:29;10.25;;;2.80;;
24407;SDS011;12542;50.924;4.516;2023-08-08T02:55:54;12.98;;;3.15;;
24407;SDS011;12542;50.924;4.516;2023-08-08T02:58:20;10.38;;;4.50;;
24407;SDS011;12542;50.924;4.516;2023-08-08T03:00:45;16.80;;;3.58;;
24407;SDS011;12542;50.924;4.516;2023-08-08T03:03:11;9.65;;;2.80;;
24407;SDS011;12542;50.924;4.516;2023-08-08T03:05:37;13.38;;;3.53;;
24407;SDS011;12542;50.924;4.516;2023-08-08T03:08:03;13.73;;;3.50;;
24407;SDS011;12542;50.924;4.516;2023-08-08T03:10:28;16.88;;;2.80;;
24407;SDS011;12542;50.924;4.516;2023-08-08T03:12:54;12.95;;;3.35;;
24407;SDS011;12542;50.924;4.516;2023-08-08T03:15:20;11.02;;;2.78;;
24407;SDS011;12542;50.924;4.516;2023-08-08T03:17:46;10.98;;;3.10;;
24407;SDS011;12542;50.924;4.516;2023-08-08T03:20:12;10.98;;;3.13;;
24407;SDS011;12542;50.924;4.516;2023-08-08T03:22:39;12.00;;;3.60;;
24407;SDS011;12542;50.924;4.516;2023-08-08T03:25:07;11.93;;;3.33;;
24407;SDS011;12542;50.924;4.516;2023-08-08T03:27:33;12.15;;;3.10;;
24407;SDS011;12542;50.924;4.516;2023-08-08T03:29:59;11.38;;;3.65;;
24407;SDS011;12542;50.924;4.516;2023-08-08T03:32:24;9.63;;;3.30;;
24407;SDS011;12542;50.924;4.516;2023-08-08T03:34:50;14.52;;;3.15;;
24407;SDS011;12542;50.924;4.516;2023-08-08T03:37:16;10.95;;;3.15;;
24407;SDS011;12542;50.924;4.516;2023-08-08T03:39:41;8.90;;;3.08;;
24407;SDS011;12542;50.924;4.516;2023-08-08T03:42:07;17.17;;;3.17;;
24407;SDS011;12542;50.924;4.516;2023-08-08T03:44:33;17.95;;;4.20;;
24407;SDS011;12542;50.924;4.516;2023-08-08T03:46:59;13.07;;;4.10;;
24407;SDS011;12542;50.924;4.516;2023-08-08T03:49:25;13.48;;;3.58;;
24407;SDS011;12542;50.924;4.516;2023-08-08T03:51:50;12.93;;;3.72;;
24407;SDS011;12542;50.924;4.516;2023-08-08T03:54:16;12.18;;;4.03;;
24407;SDS011;12542;50.924;4.516;2023-08-08T03:56:43;11.15;;;3.45;;
24407;SDS011;12542;50.924;4.516;2023-08-08T03:59:08;11.95;;;3.67;;
24407;SDS011;12542;50.924;4.516;2023-08-08T04:01:35;15.18;;;4.15;;
24407;SDS011;12542;50.924;4.516;2023-08-08T04:04:02;13.02;;;4.07;;
24407;SDS011;12542;50.924;4.516;2023-08-08T04:06:29;12.88;;;3.70;;
24407;SDS011;12542;50.924;4.516;2023-08-08T04:08:54;7.13;;;3.70;;
24407;SDS011;12542;50.924;4.516;2023-08-08T04:11:20;13.20;;;4.13;;
24407;SDS011;12542;50.924;4.516;2023-08-08T04:13:50;13.98;;;4.35;;
24407;SDS011;12542;50.924;4.516;2023-08-08T04:16:16;9.57;;;3.20;;
24407;SDS011;12542;50.924;4.516;2023-08-08T04:18:42;18.17;;;3.75;;
24407;SDS011;12542;50.924;4.516;2023-08-08T04:21:07;13.60;;;4.20;;
24407;SDS011;12542;50.924;4.516;2023-08-08T04:23:34;12.25;;;3.95;;
24407;SDS011;12542;50.924;4.516;2023-08-08T04:26:00;10.48;;;3.50;;
24407;SDS011;12542;50.924;4.516;2023-08-08T04:28:26;11.60;;;4.03;;
24407;SDS011;12542;50.924;4.516;2023-08-08T04:30:52;15.35;;;3.58;;
24407;SDS011;12542;50.924;4.516;2023-08-08T04:33:17;15.15;;;4.65;;
24407;SDS011;12542;50.924;4.516;2023-08-08T04:35:43;13.70;;;3.88;;
24407;SDS011;12542;50.924;4.516;2023-08-08T04:38:08;11.98;;;3.47;;
24407;SDS011;12542;50.924;4.516;2023-08-08T04:40:34;11.25;;;4.60;;
24407;SDS011;12542;50.924;4.516;2023-08-08T04:43:00;12.95;;;3.92;;
24407;SDS011;12542;50.924;4.516;2023-08-08T04:45:26;17.20;;;5.03;;
24407;SDS011;12542;50.924;4.516;2023-08-08T04:47:54;16.15;;;4.18;;
24407;SDS011;12542;50.924;4.516;2023-08-08T04:50:20;15.57;;;3.22;;
24407;SDS011;12542;50.924;4.516;2023-08-08T04:52:45;9.77;;;3.70;;
24407;SDS011;12542;50.924;4.516;2023-08-08T04:55:11;14.27;;;3.95;;
24407;SDS011;12542;50.924;4.516;2023-08-08T04:57:36;14.57;;;4.22;;
24407;SDS011;12542;50.924;4.516;2023-08-08T05:00:02;14.80;;;3.72;;
24407;SDS011;12542;50.924;4.516;2023-08-08T05:02:30;12.57;;;3.70;;
24407;SDS011;12542;50.924;4.516;2023-08-08T05:04:56;12.10;;;3.35;;
24407;SDS011;12542;50.924;4.516;2023-08-08T05:07:22;14.15;;;3.10;;
24407;SDS011;12542;50.924;4.516;2023-08-08T05:09:48;12.77;;;2.97;;
24407;SDS011;12542;50.924;4.516;2023-08-08T05:12:13;10.57;;;3.05;;
24407;SDS011;12542;50.924;4.516;2023-08-08T05:14:39;11.60;;;3.67;;
24407;SDS011;12542;50.924;4.516;2023-08-08T05:17:05;13.98;;;2.85;;
24407;SDS011;12542;50.924;4.516;2023-08-08T05:19:31;10.93;;;2.38;;
24407;SDS011;12542;50.924;4.516;2023-08-08T05:21:57;12.63;;;2.67;;
24407;SDS011;12542;50.924;4.516;2023-08-08T05:24:22;11.93;;;2.35;;
24407;SDS011;12542;50.924;4.516;2023-08-08T05:26:48;6.80;;;2.72;;
24407;SDS011;12542;50.924;4.516;2023-08-08T05:29:14;12.77;;;3.20;;
24407;SDS011;12542;50.924;4.516;2023-08-08T05:31:40;13.00;;;2.30;;
24407;SDS011;12542;50.924;4.516;2023-08-08T05:34:06;8.48;;;2.38;;
24407;SDS011;12542;50.924;4.516;2023-08-08T05:36:32;10.98;;;1.65;;
24407;SDS011;12542;50.924;4.516;2023-08-08T05:38:58;11.20;;;2.13;;
24407;SDS011;12542;50.924;4.516;2023-08-08T05:41:23;8.25;;;1.90;;
24407;SDS011;12542;50.924;4.516;2023-08-08T05:43:49;8.15;;;2.03;;
24407;SDS011;12542;50.924;4.516;2023-08-08T05:46:15;9.68;;;2.45;;
24407;SDS011;12542;50.924;4.516;2023-08-08T05:48:41;9.68;;;2.05;;
24407;SDS011;12542;50.924;4.516;2023-08-08T05:51:06;7.88;;;2.17;;
24407;SDS011;12542;50.924;4.516;2023-08-08T05:53:32;6.53;;;1.83;;
24407;SDS011;12542;50.924;4.516;2023-08-08T05:55:58;7.88;;;2.65;;
24407;SDS011;12542;50.924;4.516;2023-08-08T05:58:23;7.85;;;2.20;;
24407;SDS011;12542;50.924;4.516;2023-08-08T06:00:49;10.65;;;2.42;;
24407;SDS011;12542;50.924;4.516;2023-08-08T06:03:15;8.43;;;2.05;;
24407;SDS011;12542;50.924;4.516;2023-08-08T06:05:41;7.93;;;1.88;;
24407;SDS011;12542;50.924;4.516;2023-08-08T06:08:06;16.00;;;2.50;;
24407;SDS011;12542;50.924;4.516;2023-08-08T06:10:36;11.15;;;2.10;;
24407;SDS011;12542;50.924;4.516;2023-08-08T06:13:02;10.00;;;2.13;;
24407;SDS011;12542;50.924;4.516;2023-08-08T06:15:28;8.23;;;2.38;;
24407;SDS011;12542;50.924;4.516;2023-08-08T06:17:53;9.70;;;2.10;;
24407;SDS011;12542;50.924;4.516;2023-08-08T06:20:19;9.18;;;1.77;;
24407;SDS011;12542;50.924;4.516;2023-08-08T06:22:45;7.47;;;2.60;;
24407;SDS011;12542;50.924;4.516;2023-08-08T06:25:11;12.70;;;2.47;;
24407;SDS011;12542;50.924;4.516;2023-08-08T06:27:37;6.53;;;1.85;;
24407;SDS011;12542;50.924;4.516;2023-08-08T06:30:02;10.93;;;2.85;;
24407;SDS011;12542;50.924;4.516;2023-08-08T06:32:28;9.02;;;2.17;;
24407;SDS011;12542;50.924;4.516;2023-08-08T06:34:54;13.95;;;2.22;;
24407;SDS011;12542;50.924;4.516;2023-08-08T06:37:20;8.73;;;1.90;;
24407;SDS011;12542;50.924;4.516;2023-08-08T06:39:46;9.25;;;1.77;;
24407;SDS011;12542;50.924;4.516;2023-08-08T06:42:12;7.53;;;2.20;;
24407;SDS011;12542;50.924;4.516;2023-08-08T06:44:44;6.57;;;1.70;;
24407;SDS011;12542;50.924;4.516;2023-08-08T06:47:10;8.68;;;2.25;;
24407;SDS011;12542;50.924;4.516;2023-08-08T06:49:37;7.28;;;1.88;;
24407;SDS011;12542;50.924;4.516;2023-08-08T06:52:03;13.43;;;2.47;;
24407;SDS011;12542;50.924;4.516;2023-08-08T06:54:30;8.45;;;1.77;;
24407;SDS011;12542;50.924;4.516;2023-08-08T06:56:59;8.27;;;1.80;;
24407;SDS011;12542;50.924;4.516;2023-08-08T06:59:25;10.75;;;2.10;;
24407;SDS011;12542;50.924;4.516;2023-08-08T07:01:51;8.68;;;1.85;;
24407;SDS011;12542;50.924;4.516;2023-08-08T07:04:17;4.13;;;1.63;;
24407;SDS011;12542;50.924;4.516;2023-08-08T07:06:43;7.00;;;1.70;;
24407;SDS011;12542;50.924;4.516;2023-08-08T07:09:12;7.38;;;2.03;;
24407;SDS011;12542;50.924;4.516;2023-08-08T07:11:39;9.43;;;1.80;;
24407;SDS011;12542;50.924;4.516;2023-08-08T07:14:05;6.82;;;1.83;;
24407;SDS011;12542;50.924;4.516;2023-08-08T07:16:31;10.00;;;2.05;;
24407;SDS011;12542;50.924;4.516;2023-08-08T07:18:57;9.80;;;1.70;;
24407;SDS011;12542;50.924;4.516;2023-08-08T07:21:22;8.27;;;1.90;;
24407;SDS011;12542;50.924;4.516;2023-08-08T07:23:48;8.60;;;1.80;;
24407;SDS011;12542;50.924;4.516;2023-08-08T07:26:14;10.68;;;2.45;;
24407;SDS011;12542;50.924;4.516;2023-08-08T07:28:40;9.00;;;2.20;;
24407;SDS011;12542;50.924;4.516;2023-08-08T07:31:05;8.50;;;2.28;;
24407;SDS011;12542;50.924;4.516;2023-08-08T07:33:31;9.00;;;2.08;;
24407;SDS011;12542;50.924;4.516;2023-08-08T07:35:57;9.13;;;2.03;;
24407;SDS011;12542;50.924;4.516;2023-08-08T07:38:22;10.95;;;2.10;;
24407;SDS011;12542;50.924;4.516;2023-08-08T07:40:48;9.18;;;1.85;;
24407;SDS011;12542;50.924;4.516;2023-08-08T07:43:14;9.68;;;2.10;;
24407;SDS011;12542;50.924;4.516;2023-08-08T07:45:39;5.93;;;1.60;;
24407;SDS011;12542;50.924;4.516;2023-08-08T07:48:06;9.68;;;1.85;;
24407;SDS011;12542;50.924;4.516;2023-08-08T07:50:31;8.00;;;1.77;;
24407;SDS011;12542;50.924;4.516;2023-08-08T07:52:57;11.23;;;3.05;;
24407;SDS011;12542;50.924;4.516;2023-08-08T07:55:23;12.68;;;2.55;;
24407;SDS011;12542;50.924;4.516;2023-08-08T07:57:48;7.43;;;2.17;;
24407;SDS011;12542;50.924;4.516;2023-08-08T08:00:14;10.55;;;2.67;;
24407;SDS011;12542;50.924;4.516;2023-08-08T08:02:43;11.30;;;2.67;;
24407;SDS011;12542;50.924;4.516;2023-08-08T08:05:10;8.35;;;2.25;;
24407;SDS011;12542;50.924;4.516;2023-08-08T08:07:37;9.43;;;2.10;;
24407;SDS011;12542;50.924;4.516;2023-08-08T08:10:03;10.10;;;2.75;;
24407;SDS011;12542;50.924;4.516;2023-08-08T08:12:31;15.05;;;2.03;;
24407;SDS011;12542;50.924;4.516;2023-08-08T08:14:57;10.80;;;2.35;;
24407;SDS011;12542;50.924;4.516;2023-08-08T08:17:23;7.55;;;2.30;;
24407;SDS011;12542;50.924;4.516;2023-08-08T08:19:50;9.38;;;2.30;;
24407;SDS011;12542;50.924;4.516;2023-08-08T08:22:16;15.45;;;3.17;;
24407;SDS011;12542;50.924;4.516;2023-08-08T08:24:42;11.30;;;2.13;;
24407;SDS011;12542;50.924;4.516;2023-08-08T08:27:08;9.55;;;2.30;;
24407;SDS011;12542;50.924;4.516;2023-08-08T08:29:33;13.25;;;2.92;;
24407;SDS011;12542;50.924;4.516;2023-08-08T08:32:02;5.50;;;1.92;;
24407;SDS011;12542;50.924;4.516;2023-08-08T08:34:27;10.73;;;2.97;;
24407;SDS011;12542;50.924;4.516;2023-08-08T08:36:53;8.18;;;2.35;;
24407;SDS011;12542;50.924;4.516;2023-08-08T08:39:19;11.40;;;2.58;;
24407;SDS011;12542;50.924;4.516;2023-08-08T08:41:45;12.85;;;2.53;;
24407;SDS011;12542;50.924;4.516;2023-08-08T08:44:16;11.18;;;2.28;;
24407;SDS011;12542;50.924;4.516;2023-08-08T08:46:41;11.15;;;2.40;;
24407;SDS011;12542;50.924;4.516;2023-08-08T08:49:08;6.65;;;2.55;;
24407;SDS011;12542;50.924;4.516;2023-08-08T08:51:35;9.05;;;2.47;;
24407;SDS011;12542;50.924;4.516;2023-08-08T08:54:04;11.65;;;2.50;;
24407;SDS011;12542;50.924;4.516;2023-08-08T08:56:30;8.48;;;2.50;;
24407;SDS011;12542;50.924;4.516;2023-08-08T08:58:57;12.63;;;2.83;;
24407;SDS011;12542;50.924;4.516;2023-08-08T09:01:24;12.50;;;3.55;;
24407;SDS011;12542;50.924;4.516;2023-08-08T09:03:52;9.00;;;1.88;;
24407;SDS011;12542;50.924;4.516;2023-08-08T09:06:18;8.63;;;2.20;;
24407;SDS011;12542;50.924;4.516;2023-08-08T09:08:45;9.70;;;2.35;;
24407;SDS011;12542;50.924;4.516;2023-08-08T09:11:12;7.22;;;2.00;;
24407;SDS011;12542;50.924;4.516;2023-08-08T09:13:38;6.38;;;2.05;;
24407;SDS011;12542;50.924;4.516;2023-08-08T09:16:07;9.63;;;1.85;;
24407;SDS011;12542;50.924;4.516;2023-08-08T09:18:33;12.30;;;2.90;;
24407;SDS011;12542;50.924;4.516;2023-08-08T09:21:00;8.43;;;2.00;;
24407;SDS011;12542;50.924;4.516;2023-08-08T09:23:25;6.57;;;1.90;;
24407;SDS011;12542;50.924;4.516;2023-08-08T09:25:51;5.90;;;2.13;;
24407;SDS011;12542;50.924;4.516;2023-08-08T09:28:17;7.38;;;1.73;;
24407;SDS011;12542;50.924;4.516;2023-08-08T09:30:43;7.18;;;1.95;;
24407;SDS011;12542;50.924;4.516;2023-08-08T09:33:09;8.82;;;1.92;;
24407;SDS011;12542;50.924;4.516;2023-08-08T09:35:38;9.90;;;2.05;;
24407;SDS011;12542;50.924;4.516;2023-08-08T09:38:06;9.65;;;1.92;;
24407;SDS011;12542;50.924;4.516;2023-08-08T09:40:32;6.80;;;1.90;;
24407;SDS011;12542;50.924;4.516;2023-08-08T09:42:59;7.25;;;1.85;;
24407;SDS011;12542;50.924;4.516;2023-08-08T09:45:24;11.50;;;2.67;;
24407;SDS011;12542;50.924;4.516;2023-08-08T09:47:50;8.48;;;1.88;;
24407;SDS011;12542;50.924;4.516;2023-08-08T09:50:19;7.70;;;1.40;;
24407;SDS011;12542;50.924;4.516;2023-08-08T09:52:46;5.90;;;1.38;;
24407;SDS011;12542;50.924;4.516;2023-08-08T09:55:12;5.32;;;1.67;;
24407;SDS011;12542;50.924;4.516;2023-08-08T09:57:39;7.13;;;1.95;;
24407;SDS011;12542;50.924;4.516;2023-08-08T10:00:05;8.13;;;1.90;;
24407;SDS011;12542;50.924;4.516;2023-08-08T10:02:40;7.15;;;1.48;;
24407;SDS011;12542;50.924;4.516;2023-08-08T10:05:10;8.85;;;1.55;;
24407;SDS011;12542;50.924;4.516;2023-08-08T10:07:39;7.35;;;1.40;;
24407;SDS011;12542;50.924;4.516;2023-08-08T10:10:08;6.90;;;1.23;;
24407;SDS011;12542;50.924;4.516;2023-08-08T10:12:38;4.10;;;1.48;;
24407;SDS011;12542;50.924;4.516;2023-08-08T10:15:07;5.47;;;1.55;;
24407;SDS011;12542;50.924;4.516;2023-08-08T10:17:35;4.15;;;1.30;;
24407;SDS011;12542;50.924;4.516;2023-08-08T10:20:02;5.45;;;1.40;;
24407;SDS011;12542;50.924;4.516;2023-08-08T10:22:36;8.40;;;2.55;;
24407;SDS011;12542;50.924;4.516;2023-08-08T10:25:03;5.15;;;1.60;;
24407;SDS011;12542;50.924;4.516;2023-08-08T10:27:33;8.15;;;1.38;;
24407;SDS011;12542;50.924;4.516;2023-08-08T10:30:09;5.05;;;1.58;;
24407;SDS011;12542;50.924;4.516;2023-08-08T10:32:42;4.82;;;1.48;;
24407;SDS011;12542;50.924;4.516;2023-08-08T10:35:11;5.57;;;1.20;;
24407;SDS011;12542;50.924;4.516;2023-08-08T10:37:38;6.60;;;1.40;;
24407;SDS011;12542;50.924;4.516;2023-08-08T10:40:04;5.57;;;1.20;;
24407;SDS011;12542;50.924;4.516;2023-08-08T10:42:40;3.75;;;1.33;;
24407;SDS011;12542;50.924;4.516;2023-08-08T10:45:09;6.53;;;1.42;;
24407;SDS011;12542;50.924;4.516;2023-08-08T10:47:39;8.88;;;1.10;;
24407;SDS011;12542;50.924;4.516;2023-08-08T10:57:57;4.03;;;1.33;;
24407;SDS011;12542;50.924;4.516;2023-08-08T11:00:25;8.35;;;1.33;;
24407;SDS011;12542;50.924;4.516;2023-08-08T11:03:02;3.72;;;1.13;;
24407;SDS011;12542;50.924;4.516;2023-08-08T11:05:34;3.97;;;1.55;;
24407;SDS011;12542;50.924;4.516;2023-08-08T11:08:02;2.70;;;1.25;;
24407;SDS011;12542;50.924;4.516;2023-08-08T11:10:29;5.38;;;1.00;;
24407;SDS011;12542;50.924;4.516;2023-08-08T11:12:58;5.30;;;1.13;;
24407;SDS011;12542;50.924;4.516;2023-08-08T11:15:26;5.55;;;1.10;;
24407;SDS011;12542;50.924;4.516;2023-08-08T11:17:52;8.50;;;1.83;;
24407;SDS011;12542;50.924;4.516;2023-08-08T11:20:23;4.07;;;0.98;;
24407;SDS011;12542;50.924;4.516;2023-08-08T11:22:52;6.03;;;1.10;;
24407;SDS011;12542;50.924;4.516;2023-08-08T11:25:22;2.60;;;0.88;;
24407;SDS011;12542;50.924;4.516;2023-08-08T11:27:53;1.63;;;0.80;;
24407;SDS011;12542;50.924;4.516;2023-08-08T11:30:21;2.53;;;0.90;;
24407;SDS011;12542;50.924;4.516;2023-08-08T11:32:48;4.82;;;0.90;;
24407;SDS011;12542;50.924;4.516;2023-08-08T11:35:21;3.40;;;1.02;;
24407;SDS011;12542;50.924;4.516;2023-08-08T11:37:48;3.83;;;1.20;;
24407;SDS011;12542;50.924;4.516;2023-08-08T11:40:18;3.15;;;0.93;;
24407;SDS011;12542;50.924;4.516;2023-08-08T11:42:45;5.32;;;1.15;;
24407;SDS011;12542;50.924;4.516;2023-08-08T11:45:11;3.13;;;1.00;;
24407;SDS011;12542;50.924;4.516;2023-08-08T11:47:38;4.10;;;1.33;;
24407;SDS011;12542;50.924;4.516;2023-08-08T11:50:05;3.45;;;0.82;;
24407;SDS011;12542;50.924;4.516;2023-08-08T11:52:33;3.25;;;1.17;;
24407;SDS011;12542;50.924;4.516;2023-08-08T11:55:00;3.08;;;0.73;;
24407;SDS011;12542;50.924;4.516;2023-08-08T11:57:27;1.77;;;0.80;;
24407;SDS011;12542;50.924;4.516;2023-08-08T11:59:53;2.40;;;0.95;;
24407;SDS011;12542;50.924;4.516;2023-08-08T12:02:19;2.05;;;0.80;;
24407;SDS011;12542;50.924;4.516;2023-08-08T12:04:45;3.08;;;0.70;;
24407;SDS011;12542;50.924;4.516;2023-08-08T12:07:14;4.28;;;0.80;;
24407;SDS011;12542;50.924;4.516;2023-08-08T12:09:39;2.33;;;0.82;;
24407;SDS011;12542;50.924;4.516;2023-08-08T12:12:05;3.50;;;1.15;;
24407;SDS011;12542;50.924;4.516;2023-08-08T12:14:41;3.03;;;1.00;;
24407;SDS011;12542;50.924;4.516;2023-08-08T12:17:07;3.35;;;0.80;;
24407;SDS011;12542;50.924;4.516;2023-08-08T12:19:34;2.13;;;0.77;;
24407;SDS011;12542;50.924;4.516;2023-08-08T12:22:00;3.03;;;0.60;;
24407;SDS011;12542;50.924;4.516;2023-08-08T12:24:25;1.55;;;0.80;;
24407;SDS011;12542;50.924;4.516;2023-08-08T12:26:51;4.55;;;0.82;;
24407;SDS011;12542;50.924;4.516;2023-08-08T12:29:17;3.55;;;0.65;;
24407;SDS011;12542;50.924;4.516;2023-08-08T12:31:43;3.75;;;0.70;;
24407;SDS011;12542;50.924;4.516;2023-08-08T12:34:08;2.75;;;0.80;;
24407;SDS011;12542;50.924;4.516;2023-08-08T12:36:35;5.07;;;0.80;;
24407;SDS011;12542;50.924;4.516;2023-08-08T12:39:00;2.40;;;0.80;;
24407;SDS011;12542;50.924;4.516;2023-08-08T12:41:26;4.53;;;0.98;;
24407;SDS011;12542;50.924;4.516;2023-08-08T12:43:54;2.47;;;0.85;;
24407;SDS011;12542;50.924;4.516;2023-08-08T12:46:20;1.35;;;0.88;;
24407;SDS011;12542;50.924;4.516;2023-08-08T12:48:46;3.65;;;1.00;;
24407;SDS011;12542;50.924;4.516;2023-08-08T12:51:12;3.95;;;1.00;;
24407;SDS011;12542;50.924;4.516;2023-08-08T12:53:37;2.55;;;0.70;;
24407;SDS011;12542;50.924;4.516;2023-08-08T12:56:03;3.70;;;0.85;;
24407;SDS011;12542;50.924;4.516;2023-08-08T12:58:29;5.13;;;0.90;;
24407;SDS011;12542;50.924;4.516;2023-08-08T13:00:55;3.97;;;1.13;;
24407;SDS011;12542;50.924;4.516;2023-08-08T13:03:20;1.58;;;0.88;;
24407;SDS011;12542;50.924;4.516;2023-08-08T13:05:46;1.25;;;0.70;;
24407;SDS011;12542;50.924;4.516;2023-08-08T13:08:12;4.55;;;0.88;;
24407;SDS011;12542;50.924;4.516;2023-08-08T13:10:38;2.65;;;0.80;;
24407;SDS011;12542;50.924;4.516;2023-08-08T13:13:04;1.77;;;0.60;;
24407;SDS011;12542;50.924;4.516;2023-08-08T13:15:30;2.42;;;0.80;;
24407;SDS011;12542;50.924;4.516;2023-08-08T13:17:56;3.05;;;0.80;;
24407;SDS011;12542;50.924;4.516;2023-08-08T13:20:22;2.97;;;0.75;;
24407;SDS011;12542;50.924;4.516;2023-08-08T13:22:49;2.83;;;0.93;;
24407;SDS011;12542;50.924;4.516;2023-08-08T13:25:15;3.28;;;0.75;;
24407;SDS011;12542;50.924;4.516;2023-08-08T13:27:43;3.00;;;1.02;;
24407;SDS011;12542;50.924;4.516;2023-08-08T13:30:09;2.13;;;0.68;;
24407;SDS011;12542;50.924;4.516;2023-08-08T13:32:35;1.42;;;0.40;;
24407;SDS011;12542;50.924;4.516;2023-08-08T13:35:02;2.15;;;0.70;;
24407;SDS011;12542;50.924;4.516;2023-08-08T13:37:28;5.88;;;0.88;;
24407;SDS011;12542;50.924;4.516;2023-08-08T13:39:54;1.85;;;0.82;;
24407;SDS011;12542;50.924;4.516;2023-08-08T13:42:22;2.47;;;0.77;;
24407;SDS011;12542;50.924;4.516;2023-08-08T13:44:47;2.15;;;0.75;;
24407;SDS011;12542;50.924;4.516;2023-08-08T13:47:18;3.13;;;0.65;;
24407;SDS011;12542;50.924;4.516;2023-08-08T13:49:43;3.30;;;0.98;;
24407;SDS011;12542;50.924;4.516;2023-08-08T13:52:09;3.40;;;0.98;;
24407;SDS011;12542;50.924;4.516;2023-08-08T13:54:35;4.68;;;1.00;;
24407;SDS011;12542;50.924;4.516;2023-08-08T13:57:01;4.60;;;0.70;;
24407;SDS011;12542;50.924;4.516;2023-08-08T13:59:27;2.88;;;0.90;;
24407;SDS011;12542;50.924;4.516;2023-08-08T14:01:52;5.50;;;0.98;;
24407;SDS011;12542;50.924;4.516;2023-08-08T14:04:18;5.03;;;1.13;;
24407;SDS011;12542;50.924;4.516;2023-08-08T14:06:44;2.35;;;0.90;;
24407;SDS011;12542;50.924;4.516;2023-08-08T14:09:10;2.95;;;1.15;;
24407;SDS011;12542;50.924;4.516;2023-08-08T14:11:36;4.82;;;0.93;;
24407;SDS011;12542;50.924;4.516;2023-08-08T14:14:01;4.60;;;1.40;;
24407;SDS011;12542;50.924;4.516;2023-08-08T14:16:27;3.00;;;0.68;;
24407;SDS011;12542;50.924;4.516;2023-08-08T14:18:52;4.72;;;1.10;;
24407;SDS011;12542;50.924;4.516;2023-08-08T14:21:18;3.25;;;1.00;;
24407;SDS011;12542;50.924;4.516;2023-08-08T14:23:44;3.40;;;0.73;;
24407;SDS011;12542;50.924;4.516;2023-08-08T14:26:10;2.58;;;0.70;;
24407;SDS011;12542;50.924;4.516;2023-08-08T14:28:36;2.03;;;0.60;;
24407;SDS011;12542;50.924;4.516;2023-08-08T14:31:02;2.25;;;0.82;;
24407;SDS011;12542;50.924;4.516;2023-08-08T14:33:30;3.05;;;0.95;;
24407;SDS011;12542;50.924;4.516;2023-08-08T14:35:56;2.47;;;0.80;;
24407;SDS011;12542;50.924;4.516;2023-08-08T14:38:25;3.05;;;0.77;;
24407;SDS011;12542;50.924;4.516;2023-08-08T14:40:51;3.47;;;0.60;;
24407;SDS011;12542;50.924;4.516;2023-08-08T14:43:18;5.22;;;0.77;;
24407;SDS011;12542;50.924;4.516;2023-08-08T14:45:44;4.53;;;0.82;;
24407;SDS011;12542;50.924;4.516;2023-08-08T14:48:09;3.47;;;0.65;;